sensor_id;sensor_type;location;lat;lon;timestamp;pressure;altitude;pressure_sealevel;temperature;humidity
28354;BME280;15603;50.878;8.036;2022-09-12T00:03:34;146135.94;;;12.14;100.00
28354;BME280;15603;50.878;8.036;2022-09-12T00:06:10;146140.81;;;12.16;100.00
28354;BME280;15603;50.878;8.036;2022-09-12T00:08:38;146134.69;;;12.14;100.00
28354;BME280;15603;50.878;8.036;2022-09-12T00:11:07;146120.09;;;12.08;100.00
28354;BME280;15603;50.878;8.036;2022-09-12T00:13:36;146111.56;;;12.04;100.00
28354;BME280;15603;50.878;8.036;2022-09-12T00:16:13;146089.66;;;11.95;100.00
28354;BME280;15603;50.878;8.036;2022-09-12T00:18:41;146087.25;;;11.94;100.00
28354;BME280;15603;50.878;8.036;2022-09-12T00:21:09;146095.78;;;11.97;100.00
28354;BME280;15603;50.878;8.036;2022-09-12T00:23:36;146070.16;;;11.87;100.00
28354;BME280;15603;50.878;8.036;2022-09-12T00:26:05;146083.59;;;11.92;100.00
28354;BME280;15603;50.878;8.036;2022-09-12T00:28:33;146055.56;;;11.81;100.00
28354;BME280;15603;50.878;8.036;2022-09-12T00:31:04;146056.78;;;11.81;100.00
28354;BME280;15603;50.878;8.036;2022-09-12T00:33:32;146015.41;;;11.64;100.00
28354;BME280;15603;50.878;8.036;2022-09-12T00:36:07;146019.09;;;11.65;100.00
28354;BME280;15603;50.878;8.036;2022-09-12T00:38:35;145958.28;;;11.39;100.00
28354;BME280;15603;50.878;8.036;2022-09-12T00:41:04;146017.88;;;11.65;100.00
28354;BME280;15603;50.878;8.036;2022-09-12T00:43:39;146025.16;;;11.68;100.00
28354;BME280;15603;50.878;8.036;2022-09-12T00:46:18;146022.75;;;11.67;100.00
28354;BME280;15603;50.878;8.036;2022-09-12T00:48:56;146003.25;;;11.58;100.00
28354;BME280;15603;50.878;8.036;2022-09-12T00:51:26;145970.41;;;11.45;100.00
28354;BME280;15603;50.878;8.036;2022-09-12T00:53:54;145887.72;;;11.10;100.00
28354;BME280;15603;50.878;8.036;2022-09-12T00:56:23;145983.81;;;11.50;100.00
28354;BME280;15603;50.878;8.036;2022-09-12T00:58:56;145985.00;;;11.51;100.00
28354;BME280;15603;50.878;8.036;2022-09-12T01:01:23;145959.50;;;11.40;100.00
28354;BME280;15603;50.878;8.036;2022-09-12T01:03:56;145971.66;;;11.45;100.00
28354;BME280;15603;50.878;8.036;2022-09-12T01:06:27;145930.28;;;11.28;100.00
28354;BME280;15603;50.878;8.036;2022-09-12T01:08:55;145953.44;;;11.37;100.00
28354;BME280;15603;50.878;8.036;2022-09-12T01:11:22;145944.91;;;11.34;100.00
28354;BME280;15603;50.878;8.036;2022-09-12T01:13:49;145961.91;;;11.41;100.00
28354;BME280;15603;50.878;8.036;2022-09-12T01:16:17;145923.00;;;11.25;100.00
28354;BME280;15603;50.878;8.036;2022-09-12T01:24:11;145964.34;;;11.42;100.00
28354;BME280;15603;50.878;8.036;2022-09-12T01:26:59;145966.75;;;11.43;100.00
28354;BME280;15603;50.878;8.036;2022-09-12T01:32:33;145944.91;;;11.34;100.00
28354;BME280;15603;50.878;8.036;2022-09-12T01:35:25;145930.28;;;11.28;100.00
28354;BME280;15603;50.878;8.036;2022-09-12T01:46:45;145901.09;;;11.15;100.00
28354;BME280;15603;50.878;8.036;2022-09-12T01:52:11;145893.78;;;11.12;100.00
28354;BME280;15603;50.878;8.036;2022-09-12T01:54:46;145886.53;;;11.09;100.00
28354;BME280;15603;50.878;8.036;2022-09-12T01:57:36;145864.63;;;11.00;100.00
28354;BME280;15603;50.878;8.036;2022-09-12T02:00:09;145856.13;;;10.96;100.00
28354;BME280;15603;50.878;8.036;2022-09-12T02:03:00;145828.16;;;10.85;100.00
28354;BME280;15603;50.878;8.036;2022-09-12T02:05:44;145851.25;;;10.94;100.00
28354;BME280;15603;50.878;8.036;2022-09-12T02:08:16;145862.22;;;10.99;100.00
28354;BME280;15603;50.878;8.036;2022-09-12T02:10:56;145869.50;;;11.02;100.00
28354;BME280;15603;50.878;8.036;2022-09-12T02:16:14;145847.59;;;10.93;100.00
28354;BME280;15603;50.878;8.036;2022-09-12T02:18:46;145801.41;;;10.73;100.00
28354;BME280;15603;50.878;8.036;2022-09-12T02:21:17;145833.03;;;10.87;100.00
28354;BME280;15603;50.878;8.036;2022-09-12T02:23:52;145833.03;;;10.87;100.00
28354;BME280;15603;50.878;8.036;2022-09-12T02:26:28;145788.03;;;10.68;100.00
28354;BME280;15603;50.878;8.036;2022-09-12T02:28:58;145711.50;;;10.35;100.00
28354;BME280;15603;50.878;8.036;2022-09-12T02:31:45;145816.00;;;10.79;100.00
28354;BME280;15603;50.878;8.036;2022-09-12T02:34:35;145825.75;;;10.84;100.00
28354;BME280;15603;50.878;8.036;2022-09-12T02:40:13;145786.84;;;10.67;100.00
28354;BME280;15603;50.878;8.036;2022-09-12T02:42:40;145760.09;;;10.56;100.00
28354;BME280;15603;50.878;8.036;2022-09-12T02:45:08;145711.50;;;10.35;100.00
28354;BME280;15603;50.878;8.036;2022-09-12T02:48:15;145762.53;;;10.57;100.00
28354;BME280;15603;50.878;8.036;2022-09-12T02:50:40;145747.97;;;10.51;100.00
28354;BME280;15603;50.878;8.036;2022-09-12T02:53:08;145746.72;;;10.50;100.00
28354;BME280;15603;50.878;8.036;2022-09-12T02:55:38;145745.50;;;10.50;100.00
28354;BME280;15603;50.878;8.036;2022-09-12T02:58:17;145691.97;;;10.27;100.00
28354;BME280;15603;50.878;8.036;2022-09-12T03:01:09;145694.44;;;10.28;100.00
28354;BME280;15603;50.878;8.036;2022-09-12T03:24:36;145676.19;;;10.20;100.00
28354;BME280;15603;50.878;8.036;2022-09-12T03:29:37;145610.56;;;9.93;100.00
28354;BME280;15603;50.878;8.036;2022-09-12T03:32:04;145654.31;;;10.11;100.00
28354;BME280;15603;50.878;8.036;2022-09-12T03:34:31;145645.81;;;10.08;100.00
28354;BME280;15603;50.878;8.036;2022-09-12T03:36:59;145648.28;;;10.09;100.00
28354;BME280;15603;50.878;8.036;2022-09-12T03:39:26;145643.41;;;10.07;100.00
28354;BME280;15603;50.878;8.036;2022-09-12T03:41:54;145675.00;;;10.20;100.00
28354;BME280;15603;50.878;8.036;2022-09-12T03:44:22;145599.66;;;9.88;100.00
28354;BME280;15603;50.878;8.036;2022-09-12T03:46:49;145640.97;;;10.06;100.00
28354;BME280;15603;50.878;8.036;2022-09-12T03:49:16;145623.94;;;9.98;100.00
28354;BME280;15603;50.878;8.036;2022-09-12T03:51:43;145606.97;;;9.91;100.00
28354;BME280;15603;50.878;8.036;2022-09-12T03:54:10;145557.16;;;9.70;100.00
28354;BME280;15603;50.878;8.036;2022-09-12T03:56:38;145594.78;;;9.86;100.00
28354;BME280;15603;50.878;8.036;2022-09-12T03:59:07;145577.78;;;9.79;100.00
28354;BME280;15603;50.878;8.036;2022-09-12T04:01:34;145619.06;;;9.96;100.00
28354;BME280;15603;50.878;8.036;2022-09-12T04:04:01;145653.13;;;10.11;100.00
28354;BME280;15603;50.878;8.036;2022-09-12T04:06:28;145626.38;;;9.99;100.00
28354;BME280;15603;50.878;8.036;2022-09-12T04:08:56;145600.84;;;9.89;100.00
28354;BME280;15603;50.878;8.036;2022-09-12T04:11:24;145597.19;;;9.87;100.00
28354;BME280;15603;50.878;8.036;2022-09-12T04:13:51;145557.16;;;9.70;100.00
28354;BME280;15603;50.878;8.036;2022-09-12T04:16:18;145568.06;;;9.75;100.00
28354;BME280;15603;50.878;8.036;2022-09-12T04:18:46;145589.94;;;9.84;100.00
28354;BME280;15603;50.878;8.036;2022-09-12T04:21:15;145560.75;;;9.72;100.00
28354;BME280;15603;50.878;8.036;2022-09-12T04:23:43;145598.44;;;9.88;100.00
28354;BME280;15603;50.878;8.036;2022-09-12T04:26:11;145587.50;;;9.83;100.00
28354;BME280;15603;50.878;8.036;2022-09-12T04:28:40;145551.06;;;9.68;100.00
28354;BME280;15603;50.878;8.036;2022-09-12T04:31:10;145546.19;;;9.66;100.00
28354;BME280;15603;50.878;8.036;2022-09-12T04:33:38;145507.34;;;9.49;100.00
28354;BME280;15603;50.878;8.036;2022-09-12T04:36:08;145548.66;;;9.67;100.00
28354;BME280;15603;50.878;8.036;2022-09-12T04:38:36;145517.06;;;9.53;100.00
28354;BME280;15603;50.878;8.036;2022-09-12T04:41:15;145650.66;;;10.10;100.00
28354;BME280;15603;50.878;8.036;2022-09-12T04:43:43;145653.13;;;10.11;100.00
28354;BME280;15603;50.878;8.036;2022-09-12T04:46:15;145636.09;;;10.03;100.00
28354;BME280;15603;50.878;8.036;2022-09-12T04:48:43;145639.75;;;10.05;100.00
28354;BME280;15603;50.878;8.036;2022-09-12T04:51:19;145622.72;;;9.98;100.00
28354;BME280;15603;50.878;8.036;2022-09-12T04:53:49;145603.31;;;9.90;100.00
28354;BME280;15603;50.878;8.036;2022-09-12T04:56:17;145536.47;;;9.61;100.00
28354;BME280;15603;50.878;8.036;2022-09-12T04:58:45;145602.09;;;9.89;100.00
28354;BME280;15603;50.878;8.036;2022-09-12T05:01:15;145589.94;;;9.84;100.00
28354;BME280;15603;50.878;8.036;2022-09-12T05:03:43;145587.50;;;9.83;100.00
28354;BME280;15603;50.878;8.036;2022-09-12T05:06:23;145600.84;;;9.89;100.00
28354;BME280;15603;50.878;8.036;2022-09-12T05:08:51;145587.50;;;9.83;100.00
28354;BME280;15603;50.878;8.036;2022-09-12T05:11:21;145585.09;;;9.82;100.00
28354;BME280;15603;50.878;8.036;2022-09-12T05:13:54;145580.22;;;9.80;100.00
28354;BME280;15603;50.878;8.036;2022-09-12T05:16:22;145504.91;;;9.48;100.00
28354;BME280;15603;50.878;8.036;2022-09-12T05:18:50;145596.00;;;9.87;100.00
28354;BME280;15603;50.878;8.036;2022-09-12T05:21:20;145582.63;;;9.81;100.00
28354;BME280;15603;50.878;8.036;2022-09-12T05:23:53;145611.81;;;9.93;100.00
28354;BME280;15603;50.878;8.036;2022-09-12T05:26:21;145606.97;;;9.91;100.00
28354;BME280;15603;50.878;8.036;2022-09-12T05:28:50;145565.66;;;9.74;100.00
28354;BME280;15603;50.878;8.036;2022-09-12T05:31:25;145604.50;;;9.90;100.00
28354;BME280;15603;50.878;8.036;2022-09-12T05:33:54;145628.78;;;10.00;100.00
28354;BME280;15603;50.878;8.036;2022-09-12T05:36:24;145653.13;;;10.11;100.00
28354;BME280;15603;50.878;8.036;2022-09-12T05:38:52;145586.28;;;9.82;100.00
28354;BME280;15603;50.878;8.036;2022-09-12T05:41:25;145675.00;;;10.20;100.00
28354;BME280;15603;50.878;8.036;2022-09-12T05:43:54;145667.69;;;10.17;100.00
28354;BME280;15603;50.878;8.036;2022-09-12T05:46:24;145676.19;;;10.20;100.00
28354;BME280;15603;50.878;8.036;2022-09-12T05:48:52;145675.00;;;10.20;100.00
28354;BME280;15603;50.878;8.036;2022-09-12T05:51:27;145699.34;;;10.30;100.00
28354;BME280;15603;50.878;8.036;2022-09-12T05:53:56;145711.50;;;10.35;100.00
28354;BME280;15603;50.878;8.036;2022-09-12T05:56:27;145730.94;;;10.44;100.00
28354;BME280;15603;50.878;8.036;2022-09-12T05:58:58;145673.75;;;10.19;100.00
28354;BME280;15603;50.878;8.036;2022-09-12T06:01:26;145762.53;;;10.57;100.00
28354;BME280;15603;50.878;8.036;2022-09-12T06:03:55;145758.88;;;10.55;100.00
28354;BME280;15603;50.878;8.036;2022-09-12T06:06:24;145789.28;;;10.68;100.00
28354;BME280;15603;50.878;8.036;2022-09-12T06:08:52;145813.59;;;10.78;100.00
28354;BME280;15603;50.878;8.036;2022-09-12T06:11:23;145847.59;;;10.93;100.00
28354;BME280;15603;50.878;8.036;2022-09-12T06:13:51;145824.50;;;10.83;100.00
28354;BME280;15603;50.878;8.036;2022-09-12T06:16:24;145856.13;;;10.96;100.00
28354;BME280;15603;50.878;8.036;2022-09-12T06:18:56;145850.06;;;10.94;100.00
28354;BME280;15603;50.878;8.036;2022-09-12T06:21:25;145871.94;;;11.03;100.00
28354;BME280;15603;50.878;8.036;2022-09-12T06:23:53;145919.34;;;11.23;100.00
28354;BME280;15603;50.878;8.036;2022-09-12T06:26:21;145959.50;;;11.40;100.00
28354;BME280;15603;50.878;8.036;2022-09-12T06:28:54;145988.66;;;11.52;100.00
28354;BME280;15603;50.878;8.036;2022-09-12T06:31:30;145978.94;;;11.48;100.00
28354;BME280;15603;50.878;8.036;2022-09-12T06:34:00;146013.03;;;11.63;100.00
28354;BME280;15603;50.878;8.036;2022-09-12T06:36:32;146025.16;;;11.68;100.00
28354;BME280;15603;50.878;8.036;2022-09-12T06:39:02;146087.25;;;11.94;100.00
28354;BME280;15603;50.878;8.036;2022-09-12T06:41:30;146056.78;;;11.81;100.00
28354;BME280;15603;50.878;8.036;2022-09-12T06:43:59;146145.66;;;12.18;100.00
28354;BME280;15603;50.878;8.036;2022-09-12T06:46:27;146151.72;;;12.21;100.00
28354;BME280;15603;50.878;8.036;2022-09-12T06:48:55;146143.22;;;12.17;100.00
28354;BME280;15603;50.878;8.036;2022-09-12T06:51:23;146208.94;;;12.45;100.00
28354;BME280;15603;50.878;8.036;2022-09-12T06:53:50;146236.94;;;12.57;100.00
28354;BME280;15603;50.878;8.036;2022-09-12T06:56:22;146300.25;;;12.84;100.00
28354;BME280;15603;50.878;8.036;2022-09-12T06:58:50;146314.84;;;12.90;100.00
28354;BME280;15603;50.878;8.036;2022-09-12T07:01:20;146358.63;;;13.08;100.00
28354;BME280;15603;50.878;8.036;2022-09-12T07:03:53;146295.31;;;12.82;100.00
28354;BME280;15603;50.878;8.036;2022-09-12T07:06:23;146446.41;;;13.45;100.00
28354;BME280;15603;50.878;8.036;2022-09-12T07:08:57;146469.53;;;13.55;100.00
28354;BME280;15603;50.878;8.036;2022-09-12T07:11:27;146515.81;;;13.74;100.00
28354;BME280;15603;50.878;8.036;2022-09-12T07:13:56;146530.41;;;13.81;100.00
28354;BME280;15603;50.878;8.036;2022-09-12T07:16:24;146532.81;;;13.82;100.00
28354;BME280;15603;50.878;8.036;2022-09-12T07:18:57;146456.13;;;13.49;100.00
28354;BME280;15603;50.878;8.036;2022-09-12T07:21:25;146564.50;;;13.95;100.00
28354;BME280;15603;50.878;8.036;2022-09-12T07:23:53;146554.75;;;13.91;100.00
28354;BME280;15603;50.878;8.036;2022-09-12T07:26:29;146616.91;;;14.17;100.00
28354;BME280;15603;50.878;8.036;2022-09-12T07:28:57;146699.78;;;14.52;98.54
28354;BME280;15603;50.878;8.036;2022-09-12T07:31:45;146687.56;;;14.47;99.11
28354;BME280;15603;50.878;8.036;2022-09-12T07:34:12;146654.69;;;14.33;98.10
28354;BME280;15603;50.878;8.036;2022-09-12T07:36:39;146762.00;;;14.78;97.91
28354;BME280;15603;50.878;8.036;2022-09-12T07:39:06;146829.00;;;15.06;96.11
28354;BME280;15603;50.878;8.036;2022-09-12T07:41:33;146882.66;;;15.29;95.88
28354;BME280;15603;50.878;8.036;2022-09-12T07:44:01;146913.16;;;15.42;95.60
28354;BME280;15603;50.878;8.036;2022-09-12T07:46:29;146929.00;;;15.48;95.64
28354;BME280;15603;50.878;8.036;2022-09-12T07:48:57;146899.75;;;15.36;96.21
28354;BME280;15603;50.878;8.036;2022-09-12T07:51:27;146990.00;;;15.74;95.24
28354;BME280;15603;50.878;8.036;2022-09-12T07:53:55;147043.69;;;15.97;94.71
28354;BME280;15603;50.878;8.036;2022-09-12T07:56:23;147053.44;;;16.01;94.95
28354;BME280;15603;50.878;8.036;2022-09-12T07:58:56;147070.53;;;16.08;94.20
28354;BME280;15603;50.878;8.036;2022-09-12T08:01:23;147131.53;;;16.34;95.19
28354;BME280;15603;50.878;8.036;2022-09-12T08:03:57;147220.63;;;16.71;94.37
28354;BME280;15603;50.878;8.036;2022-09-12T08:06:26;147262.16;;;16.88;93.62
28354;BME280;15603;50.878;8.036;2022-09-12T08:08:55;147287.78;;;16.99;94.11
28354;BME280;15603;50.878;8.036;2022-09-12T08:11:24;147372.03;;;17.35;93.96
28354;BME280;15603;50.878;8.036;2022-09-12T08:13:52;147368.34;;;17.33;92.58
28354;BME280;15603;50.878;8.036;2022-09-12T08:16:24;147369.56;;;17.34;92.96
28354;BME280;15603;50.878;8.036;2022-09-12T08:18:51;147407.47;;;17.50;93.65
28354;BME280;15603;50.878;8.036;2022-09-12T08:21:23;147485.59;;;17.82;91.52
28354;BME280;15603;50.878;8.036;2022-09-12T08:23:56;147552.78;;;18.11;90.70
28354;BME280;15603;50.878;8.036;2022-09-12T08:26:23;147629.75;;;18.43;90.49
28354;BME280;15603;50.878;8.036;2022-09-12T08:28:50;147681.06;;;18.64;89.63
28354;BME280;15603;50.878;8.036;2022-09-12T08:31:20;147695.78;;;18.71;89.59
28354;BME280;15603;50.878;8.036;2022-09-12T08:33:48;147705.53;;;18.75;90.00
28354;BME280;15603;50.878;8.036;2022-09-12T08:36:21;147744.66;;;18.91;89.15
28354;BME280;15603;50.878;8.036;2022-09-12T08:38:50;147786.22;;;19.09;89.68
28354;BME280;15603;50.878;8.036;2022-09-12T08:41:37;147775.25;;;19.04;88.92
28354;BME280;15603;50.878;8.036;2022-09-12T08:49:40;147764.22;;;18.99;87.57
28354;BME280;15603;50.878;8.036;2022-09-12T08:52:16;147815.59;;;19.21;87.53
28354;BME280;15603;50.878;8.036;2022-09-12T08:54:45;147810.69;;;19.19;87.00
28354;BME280;15603;50.878;8.036;2022-09-12T08:57:13;147840.00;;;19.31;86.60
28354;BME280;15603;50.878;8.036;2022-09-12T08:59:42;147884.03;;;19.50;85.85
28354;BME280;15603;50.878;8.036;2022-09-12T09:05:20;147888.94;;;19.52;84.74
28354;BME280;15603;50.878;8.036;2022-09-12T09:10:32;147860.81;;;19.40;84.55
28354;BME280;15603;50.878;8.036;2022-09-12T09:13:36;147895.03;;;19.54;84.01
28354;BME280;15603;50.878;8.036;2022-09-12T09:16:37;147899.91;;;19.56;83.92
28354;BME280;15603;50.878;8.036;2022-09-12T09:19:11;147906.00;;;19.59;83.39
28354;BME280;15603;50.878;8.036;2022-09-12T09:22:00;147855.88;;;19.38;84.48
28354;BME280;15603;50.878;8.036;2022-09-12T09:24:37;147854.69;;;19.37;84.80
28354;BME280;15603;50.878;8.036;2022-09-12T09:27:14;147871.81;;;19.45;84.60
28354;BME280;15603;50.878;8.036;2022-09-12T09:30:12;147909.69;;;19.60;83.37
28354;BME280;15603;50.878;8.036;2022-09-12T09:32:41;147918.25;;;19.64;83.46
28354;BME280;15603;50.878;8.036;2022-09-12T09:35:17;147970.91;;;19.86;81.99
28354;BME280;15603;50.878;8.036;2022-09-12T09:38:00;148047.91;;;20.18;81.42
28354;BME280;15603;50.878;8.036;2022-09-12T09:40:39;148055.28;;;20.22;81.25
28354;BME280;15603;50.878;8.036;2022-09-12T09:43:21;148101.75;;;20.41;80.40
28354;BME280;15603;50.878;8.036;2022-09-12T09:45:50;148118.88;;;20.48;80.30
28354;BME280;15603;50.878;8.036;2022-09-12T09:48:29;148155.63;;;20.64;79.80
28354;BME280;15603;50.878;8.036;2022-09-12T09:51:03;148126.19;;;20.51;79.50
28354;BME280;15603;50.878;8.036;2022-09-12T09:53:37;148162.94;;;20.67;80.00
28354;BME280;15603;50.878;8.036;2022-09-12T09:56:32;148172.75;;;20.71;80.06
28354;BME280;15603;50.878;8.036;2022-09-12T10:01:48;148194.75;;;20.80;79.23
28354;BME280;15603;50.878;8.036;2022-09-12T10:04:21;148198.44;;;20.82;79.17
28354;BME280;15603;50.878;8.036;2022-09-12T10:07:11;148241.22;;;20.99;78.04
28354;BME280;15603;50.878;8.036;2022-09-12T10:09:38;148324.50;;;21.34;78.09
28354;BME280;15603;50.878;8.036;2022-09-12T10:12:27;148353.91;;;21.47;76.71
28354;BME280;15603;50.878;8.036;2022-09-12T10:14:58;148329.38;;;21.36;77.11
28354;BME280;15603;50.878;8.036;2022-09-12T10:17:40;148280.41;;;21.16;77.78
28354;BME280;15603;50.878;8.036;2022-09-12T10:20:45;148277.94;;;21.15;78.49
28354;BME280;15603;50.878;8.036;2022-09-12T10:25:46;148264.47;;;21.09;78.65
28354;BME280;15603;50.878;8.036;2022-09-12T10:28:22;148281.63;;;21.16;78.35
28354;BME280;15603;50.878;8.036;2022-09-12T10:30:53;148282.84;;;21.17;78.63
28354;BME280;15603;50.878;8.036;2022-09-12T10:33:22;148236.34;;;20.97;77.67
28354;BME280;15603;50.878;8.036;2022-09-12T10:35:52;148214.34;;;20.88;77.50
28354;BME280;15603;50.878;8.036;2022-09-12T10:38:26;148183.75;;;20.75;78.03
28354;BME280;15603;50.878;8.036;2022-09-12T10:41:00;148155.63;;;20.64;79.77
28354;BME280;15603;50.878;8.036;2022-09-12T10:46:22;148287.78;;;21.19;76.38
28354;BME280;15603;50.878;8.036;2022-09-12T10:49:11;148357.56;;;21.48;75.13
28354;BME280;15603;50.878;8.036;2022-09-12T10:51:39;148390.63;;;21.62;74.07
28354;BME280;15603;50.878;8.036;2022-09-12T10:54:09;148380.81;;;21.58;74.00
28354;BME280;15603;50.878;8.036;2022-09-12T10:59:24;148437.13;;;21.82;74.00
28354;BME280;15603;50.878;8.036;2022-09-12T11:02:00;148483.63;;;22.01;72.40
28354;BME280;15603;50.878;8.036;2022-09-12T11:05:01;148522.84;;;22.18;72.62
28354;BME280;15603;50.878;8.036;2022-09-12T11:30:20;148356.31;;;21.48;71.32
28354;BME280;15603;50.878;8.036;2022-09-12T11:40:33;148356.31;;;21.48;71.09
28354;BME280;15603;50.878;8.036;2022-09-12T11:46:30;148618.41;;;22.58;64.61
28354;BME280;15603;50.878;8.036;2022-09-12T11:51:47;148792.38;;;23.30;60.99
28354;BME280;15603;50.878;8.036;2022-09-12T11:54:23;148832.81;;;23.47;61.35
28354;BME280;15603;50.878;8.036;2022-09-12T11:59:55;148897.75;;;23.75;57.03
28354;BME280;15603;50.878;8.036;2022-09-12T12:02:28;148843.88;;;23.52;56.54
28354;BME280;15603;50.878;8.036;2022-09-12T12:08:00;148819.34;;;23.42;53.90
28354;BME280;15603;50.878;8.036;2022-09-12T12:13:03;148718.81;;;23.00;55.07
28354;BME280;15603;50.878;8.036;2022-09-12T12:15:45;148679.66;;;22.83;57.27
28354;BME280;15603;50.878;8.036;2022-09-12T12:18:22;148668.59;;;22.79;58.76
28354;BME280;15603;50.878;8.036;2022-09-12T12:20:50;148664.97;;;22.77;59.19
28354;BME280;15603;50.878;8.036;2022-09-12T12:25:54;148579.22;;;22.41;59.74
28354;BME280;15603;50.878;8.036;2022-09-12T12:31:16;148559.63;;;22.33;59.52
28354;BME280;15603;50.878;8.036;2022-09-12T12:38:56;148838.97;;;23.50;55.25
28354;BME280;15603;50.878;8.036;2022-09-12T12:43:52;148887.97;;;23.70;53.68
28354;BME280;15603;50.878;8.036;2022-09-12T12:46:27;148921.09;;;23.84;54.58
28354;BME280;15603;50.878;8.036;2022-09-12T12:49:06;148944.38;;;23.94;53.67
28354;BME280;15603;50.878;8.036;2022-09-12T12:51:48;148924.78;;;23.86;52.71
28354;BME280;15603;50.878;8.036;2022-09-12T12:54:33;148887.97;;;23.70;51.61
28354;BME280;15603;50.878;8.036;2022-09-12T13:02:21;148826.72;;;23.45;53.63
28354;BME280;15603;50.878;8.036;2022-09-12T13:04:50;148854.88;;;23.57;54.38
28354;BME280;15603;50.878;8.036;2022-09-12T13:07:35;148816.91;;;23.41;53.93
28354;BME280;15603;50.878;8.036;2022-09-12T13:10:05;148861.00;;;23.59;54.70
28354;BME280;15603;50.878;8.036;2022-09-12T13:12:36;148858.56;;;23.58;52.71
28354;BME280;15603;50.878;8.036;2022-09-12T13:16:07;148862.25;;;23.60;52.35
28354;BME280;15603;50.878;8.036;2022-09-12T13:18:45;148851.19;;;23.55;53.52
28354;BME280;15603;50.878;8.036;2022-09-12T13:21:18;148804.66;;;23.36;54.04
28354;BME280;15603;50.878;8.036;2022-09-12T13:24:10;148810.75;;;23.38;54.14
28354;BME280;15603;50.878;8.036;2022-09-12T13:26:43;148835.28;;;23.48;52.17
28354;BME280;15603;50.878;8.036;2022-09-12T13:29:17;148819.34;;;23.42;51.14
28354;BME280;15603;50.878;8.036;2022-09-12T13:31:47;148753.19;;;23.14;51.71
28354;BME280;15603;50.878;8.036;2022-09-12T13:40:16;148845.09;;;23.52;51.00
28354;BME280;15603;50.878;8.036;2022-09-12T13:42:52;148878.16;;;23.66;51.16
28354;BME280;15603;50.878;8.036;2022-09-12T13:45:32;148864.69;;;23.61;51.73
28354;BME280;15603;50.878;8.036;2022-09-12T13:48:01;148760.50;;;23.17;52.53
28354;BME280;15603;50.878;8.036;2022-09-12T13:50:36;148804.66;;;23.36;54.04
28354;BME280;15603;50.878;8.036;2022-09-12T13:53:11;148753.19;;;23.14;52.95
28354;BME280;15603;50.878;8.036;2022-09-12T13:55:42;148794.84;;;23.31;52.54
28354;BME280;15603;50.878;8.036;2022-09-12T13:58:21;148799.75;;;23.33;52.87
28354;BME280;15603;50.878;8.036;2022-09-12T14:01:14;148799.75;;;23.33;51.41
28354;BME280;15603;50.878;8.036;2022-09-12T14:03:48;148819.34;;;23.42;52.38
28354;BME280;15603;50.878;8.036;2022-09-12T14:06:46;148819.34;;;23.42;51.67
28354;BME280;15603;50.878;8.036;2022-09-12T14:09:22;148761.78;;;23.18;51.71
28354;BME280;15603;50.878;8.036;2022-09-12T14:11:51;148738.50;;;23.08;52.04
28354;BME280;15603;50.878;8.036;2022-09-12T14:14:39;148758.09;;;23.16;52.91
28354;BME280;15603;50.878;8.036;2022-09-12T14:17:16;148791.16;;;23.30;53.54
28354;BME280;15603;50.878;8.036;2022-09-12T14:19:49;148807.13;;;23.37;52.80
28354;BME280;15603;50.878;8.036;2022-09-12T14:22:17;148771.56;;;23.22;51.84
28354;BME280;15603;50.878;8.036;2022-09-12T14:24:48;148797.28;;;23.32;53.65
28354;BME280;15603;50.878;8.036;2022-09-12T14:27:17;148782.59;;;23.26;52.12
28354;BME280;15603;50.878;8.036;2022-09-12T14:29:45;148777.69;;;23.24;53.50
28354;BME280;15603;50.878;8.036;2022-09-12T14:32:22;148738.50;;;23.08;52.71
28354;BME280;15603;50.878;8.036;2022-09-12T14:37:38;148809.53;;;23.38;52.96
28354;BME280;15603;50.878;8.036;2022-09-12T14:40:15;148821.81;;;23.43;52.12
28354;BME280;15603;50.878;8.036;2022-09-12T14:42:45;148816.91;;;23.41;52.70
28354;BME280;15603;50.878;8.036;2022-09-12T14:47:50;148821.81;;;23.43;51.34
28354;BME280;15603;50.878;8.036;2022-09-12T14:50:24;148794.84;;;23.31;51.69
28354;BME280;15603;50.878;8.036;2022-09-12T14:53:03;148831.59;;;23.47;53.08
28354;BME280;15603;50.878;8.036;2022-09-12T14:55:34;148825.50;;;23.44;52.62
28354;BME280;15603;50.878;8.036;2022-09-12T14:58:28;148851.19;;;23.55;52.10
28354;BME280;15603;50.878;8.036;2022-09-12T15:03:33;148895.34;;;23.74;53.30
28354;BME280;15603;50.878;8.036;2022-09-12T15:06:01;148890.44;;;23.71;52.17
28354;BME280;15603;50.878;8.036;2022-09-12T15:08:30;148907.59;;;23.79;53.42
28354;BME280;15603;50.878;8.036;2022-09-12T15:10:57;148895.34;;;23.74;53.32
28354;BME280;15603;50.878;8.036;2022-09-12T15:13:26;148883.06;;;23.68;54.58
28354;BME280;15603;50.878;8.036;2022-09-12T15:15:56;148874.47;;;23.65;52.42
28354;BME280;15603;50.878;8.036;2022-09-12T15:18:26;148841.41;;;23.51;51.43
28354;BME280;15603;50.878;8.036;2022-09-12T15:21:15;148789.94;;;23.29;53.26
28354;BME280;15603;50.878;8.036;2022-09-12T15:26:20;148819.34;;;23.42;54.71
28354;BME280;15603;50.878;8.036;2022-09-12T15:28:49;148816.91;;;23.41;54.30
28354;BME280;15603;50.878;8.036;2022-09-12T15:31:28;148819.34;;;23.42;53.08
28354;BME280;15603;50.878;8.036;2022-09-12T15:33:58;148847.50;;;23.53;53.91
28354;BME280;15603;50.878;8.036;2022-09-12T15:36:26;148818.13;;;23.41;53.06
28354;BME280;15603;50.878;8.036;2022-09-12T15:38:54;148900.25;;;23.76;52.42
28354;BME280;15603;50.878;8.036;2022-09-12T15:41:25;148853.69;;;23.56;52.20
28354;BME280;15603;50.878;8.036;2022-09-12T15:43:55;148870.78;;;23.63;51.06
28354;BME280;15603;50.878;8.036;2022-09-12T15:46:23;149003.22;;;24.19;51.13
28354;BME280;15603;50.878;8.036;2022-09-12T15:48:50;149112.41;;;24.64;49.55